Terminal Aerodrome Forecast
Issued by NWS

Home | Current Version | Previous Version | Text Only | Print | Product List | Glossary On
Versions: 1 2 3 4 5 6 7 8 9 10 11 12 13
000
FTUS46 KSEW 231720
TAFBFI
TAF
KBFI 231720Z 2318/2418 15007KT P6SM FEW040 BKN070 BKN150
     FM232100 16007KT P6SM SCT040 BKN070 OVC120
     FM240200 14006KT P6SM -RA OVC040
     FM241200 15010KT P6SM -RA OVC040
     FM241500 16010KT P6SM -SHRA BKN035 OVC050=

USA.gov is the U.S. government's official web portal to all federal, state and local government web resources and services.